KAMN/AMN METAR and TAF weather

Enter ICAO airport designator
Station Type Date Time Source
KAMN METAR 2019/12/06 03:55 UTC NOAA

KAMN 060355Z AUTO 00000KT 10SM OVC090 01/M01 A2994 RMK AO2 T00071010


Station Type Date Time Source
KAMN Decoded METAR 2019/12/06 03:55 UTC NOAA

Alma, Gratiot Community Airport, MI, United States (KAMN) 43-19-19N 084-41-16W
Dec 05, 2019 - 10:55 PM EST / 2019.12.06 0355 UTC
Wind: Calm:0
Visibility: 10 mile(s):0
Sky conditions: overcast
Temperature: 33.3 F (0.7 C)
Dew Point: 30.2 F (-1.0 C)
Relative Humidity: 88%
Pressure (altimeter): 29.94 in. Hg (1013 hPa)
ob: KAMN 060355Z AUTO 00000KT 10SM OVC090 01/M01 A2994 RMK AO2 T00071010
cycle: 4

Station Type Date Time Source
KAMN TAF UTC NOAA

Error!

Example: see airport list